sensor_id;sensor_type;location;lat;lon;timestamp;P1;durP1;ratioP1;P2;durP2;ratioP2
72286;SDS011;60221;45.696;16.076;2024-03-23T00:54:57;20.10;;;9.70;;
72286;SDS011;60221;45.696;16.076;2024-03-23T00:57:23;20.40;;;10.10;;
72286;SDS011;60221;45.696;16.076;2024-03-23T00:59:49;21.10;;;9.90;;
72286;SDS011;60221;45.696;16.076;2024-03-23T01:02:15;21.80;;;9.90;;
72286;SDS011;60221;45.696;16.076;2024-03-23T01:04:41;18.50;;;9.30;;
72286;SDS011;60221;45.696;16.076;2024-03-23T01:07:07;21.30;;;9.90;;
72286;SDS011;60221;45.696;16.076;2024-03-23T01:09:33;24.00;;;9.60;;
72286;SDS011;60221;45.696;16.076;2024-03-23T01:11:59;20.10;;;9.10;;
72286;SDS011;60221;45.696;16.076;2024-03-23T01:14:25;20.20;;;9.10;;
72286;SDS011;60221;45.696;16.076;2024-03-23T01:16:51;19.30;;;9.70;;
72286;SDS011;60221;45.696;16.076;2024-03-23T01:19:17;22.70;;;10.60;;
72286;SDS011;60221;45.696;16.076;2024-03-23T01:21:43;20.90;;;10.00;;
72286;SDS011;60221;45.696;16.076;2024-03-23T01:24:09;19.70;;;9.40;;
72286;SDS011;60221;45.696;16.076;2024-03-23T01:26:36;19.70;;;8.90;;
72286;SDS011;60221;45.696;16.076;2024-03-23T01:29:03;16.50;;;8.50;;
72286;SDS011;60221;45.696;16.076;2024-03-23T01:31:29;15.80;;;7.70;;
72286;SDS011;60221;45.696;16.076;2024-03-23T01:33:55;20.20;;;9.50;;
72286;SDS011;60221;45.696;16.076;2024-03-23T01:36:21;24.30;;;10.80;;
72286;SDS011;60221;45.696;16.076;2024-03-23T01:38:47;22.10;;;10.20;;
72286;SDS011;60221;45.696;16.076;2024-03-23T01:41:13;18.70;;;8.60;;
72286;SDS011;60221;45.696;16.076;2024-03-23T01:43:39;20.30;;;8.90;;
72286;SDS011;60221;45.696;16.076;2024-03-23T01:46:07;18.80;;;9.20;;
72286;SDS011;60221;45.696;16.076;2024-03-23T01:48:33;18.10;;;8.90;;
72286;SDS011;60221;45.696;16.076;2024-03-23T01:50:59;21.70;;;9.20;;
72286;SDS011;60221;45.696;16.076;2024-03-23T01:53:25;16.80;;;9.10;;
72286;SDS011;60221;45.696;16.076;2024-03-23T01:55:51;21.40;;;9.90;;
72286;SDS011;60221;45.696;16.076;2024-03-23T01:58:17;23.20;;;10.60;;
72286;SDS011;60221;45.696;16.076;2024-03-23T02:00:43;20.70;;;10.50;;
72286;SDS011;60221;45.696;16.076;2024-03-23T02:03:25;25.10;;;11.70;;
72286;SDS011;60221;45.696;16.076;2024-03-23T02:05:55;23.40;;;11.30;;
72286;SDS011;60221;45.696;16.076;2024-03-23T02:08:22;24.50;;;12.40;;
72286;SDS011;60221;45.696;16.076;2024-03-23T02:10:51;22.80;;;12.10;;
72286;SDS011;60221;45.696;16.076;2024-03-23T02:13:17;23.70;;;11.60;;
72286;SDS011;60221;45.696;16.076;2024-03-23T02:15:44;24.30;;;11.00;;
72286;SDS011;60221;45.696;16.076;2024-03-23T02:18:10;27.50;;;13.10;;
72286;SDS011;60221;45.696;16.076;2024-03-23T02:20:36;26.50;;;12.40;;
72286;SDS011;60221;45.696;16.076;2024-03-23T02:23:03;23.70;;;12.70;;
72286;SDS011;60221;45.696;16.076;2024-03-23T02:25:32;23.20;;;12.20;;
72286;SDS011;60221;45.696;16.076;2024-03-23T02:27:59;23.40;;;12.10;;
72286;SDS011;60221;45.696;16.076;2024-03-23T02:30:25;22.40;;;12.00;;
72286;SDS011;60221;45.696;16.076;2024-03-23T02:32:52;22.60;;;12.30;;
72286;SDS011;60221;45.696;16.076;2024-03-23T02:35:18;21.30;;;11.40;;
72286;SDS011;60221;45.696;16.076;2024-03-23T02:37:45;23.70;;;11.70;;
72286;SDS011;60221;45.696;16.076;2024-03-23T02:40:11;20.90;;;10.70;;
72286;SDS011;60221;45.696;16.076;2024-03-23T02:42:37;24.70;;;11.30;;
72286;SDS011;60221;45.696;16.076;2024-03-23T02:45:03;23.70;;;11.40;;
72286;SDS011;60221;45.696;16.076;2024-03-23T02:47:30;22.50;;;12.00;;
72286;SDS011;60221;45.696;16.076;2024-03-23T02:49:56;26.10;;;12.00;;
72286;SDS011;60221;45.696;16.076;2024-03-23T02:52:22;22.90;;;10.90;;
72286;SDS011;60221;45.696;16.076;2024-03-23T02:54:49;24.50;;;11.90;;
72286;SDS011;60221;45.696;16.076;2024-03-23T02:57:15;22.20;;;11.10;;
72286;SDS011;60221;45.696;16.076;2024-03-23T02:59:41;22.10;;;11.40;;
72286;SDS011;60221;45.696;16.076;2024-03-23T03:02:07;23.40;;;11.30;;
72286;SDS011;60221;45.696;16.076;2024-03-23T03:04:33;23.80;;;10.60;;
72286;SDS011;60221;45.696;16.076;2024-03-23T03:06:59;20.50;;;10.70;;
72286;SDS011;60221;45.696;16.076;2024-03-23T03:09:26;19.20;;;10.10;;
72286;SDS011;60221;45.696;16.076;2024-03-23T03:11:52;21.00;;;10.70;;
72286;SDS011;60221;45.696;16.076;2024-03-23T03:14:18;21.40;;;10.60;;
72286;SDS011;60221;45.696;16.076;2024-03-23T03:16:44;21.50;;;10.40;;
72286;SDS011;60221;45.696;16.076;2024-03-23T03:22:05;20.70;;;9.20;;
72286;SDS011;60221;45.696;16.076;2024-03-23T03:24:31;20.40;;;10.60;;
72286;SDS011;60221;45.696;16.076;2024-03-23T03:26:57;23.40;;;10.60;;
72286;SDS011;60221;45.696;16.076;2024-03-23T03:29:24;21.00;;;10.50;;
72286;SDS011;60221;45.696;16.076;2024-03-23T03:31:50;21.00;;;10.40;;
72286;SDS011;60221;45.696;16.076;2024-03-23T03:34:16;22.30;;;10.70;;
72286;SDS011;60221;45.696;16.076;2024-03-23T03:36:42;22.50;;;10.90;;
72286;SDS011;60221;45.696;16.076;2024-03-23T03:39:08;20.90;;;10.70;;
72286;SDS011;60221;45.696;16.076;2024-03-23T03:41:34;20.40;;;10.90;;
72286;SDS011;60221;45.696;16.076;2024-03-23T03:44:00;20.10;;;10.60;;
72286;SDS011;60221;45.696;16.076;2024-03-23T03:46:28;23.30;;;11.30;;
72286;SDS011;60221;45.696;16.076;2024-03-23T03:48:54;19.60;;;10.00;;
72286;SDS011;60221;45.696;16.076;2024-03-23T03:51:20;19.90;;;9.40;;
72286;SDS011;60221;45.696;16.076;2024-03-23T03:53:47;18.10;;;9.20;;
72286;SDS011;60221;45.696;16.076;2024-03-23T03:56:13;17.60;;;9.00;;
72286;SDS011;60221;45.696;16.076;2024-03-23T03:58:39;16.40;;;9.00;;
72286;SDS011;60221;45.696;16.076;2024-03-23T04:01:06;19.80;;;9.20;;
72286;SDS011;60221;45.696;16.076;2024-03-23T04:03:31;18.30;;;9.30;;
72286;SDS011;60221;45.696;16.076;2024-03-23T04:05:57;17.10;;;8.40;;
72286;SDS011;60221;45.696;16.076;2024-03-23T04:08:23;18.50;;;9.20;;
72286;SDS011;60221;45.696;16.076;2024-03-23T04:10:50;18.80;;;9.10;;
72286;SDS011;60221;45.696;16.076;2024-03-23T04:13:15;20.60;;;9.70;;
72286;SDS011;60221;45.696;16.076;2024-03-23T04:15:42;19.90;;;9.50;;
72286;SDS011;60221;45.696;16.076;2024-03-23T04:18:08;16.30;;;8.10;;
72286;SDS011;60221;45.696;16.076;2024-03-23T04:20:34;17.50;;;8.70;;
72286;SDS011;60221;45.696;16.076;2024-03-23T04:23:00;20.10;;;8.90;;
72286;SDS011;60221;45.696;16.076;2024-03-23T04:25:26;19.60;;;9.00;;
72286;SDS011;60221;45.696;16.076;2024-03-23T04:27:52;19.80;;;10.20;;
72286;SDS011;60221;45.696;16.076;2024-03-23T04:30:18;18.80;;;9.50;;
72286;SDS011;60221;45.696;16.076;2024-03-23T04:32:45;18.20;;;8.40;;
72286;SDS011;60221;45.696;16.076;2024-03-23T04:35:11;18.90;;;9.00;;
72286;SDS011;60221;45.696;16.076;2024-03-23T04:37:37;17.50;;;8.60;;
72286;SDS011;60221;45.696;16.076;2024-03-23T04:40:03;18.50;;;9.30;;
72286;SDS011;60221;45.696;16.076;2024-03-23T04:42:29;19.10;;;9.20;;
72286;SDS011;60221;45.696;16.076;2024-03-23T04:44:56;18.00;;;8.20;;
72286;SDS011;60221;45.696;16.076;2024-03-23T04:47:22;20.70;;;10.00;;
72286;SDS011;60221;45.696;16.076;2024-03-23T04:49:48;20.00;;;9.50;;
72286;SDS011;60221;45.696;16.076;2024-03-23T04:52:15;22.30;;;9.60;;
72286;SDS011;60221;45.696;16.076;2024-03-23T04:54:42;27.70;;;14.40;;
72286;SDS011;60221;45.696;16.076;2024-03-23T04:57:08;25.70;;;14.30;;
72286;SDS011;60221;45.696;16.076;2024-03-23T04:59:34;28.30;;;14.20;;
72286;SDS011;60221;45.696;16.076;2024-03-23T05:02:00;26.80;;;13.60;;
72286;SDS011;60221;45.696;16.076;2024-03-23T05:04:26;25.00;;;12.80;;
72286;SDS011;60221;45.696;16.076;2024-03-23T05:06:52;21.00;;;10.90;;
72286;SDS011;60221;45.696;16.076;2024-03-23T05:09:18;17.00;;;8.80;;
72286;SDS011;60221;45.696;16.076;2024-03-23T05:11:45;22.50;;;10.60;;
72286;SDS011;60221;45.696;16.076;2024-03-23T05:14:12;18.40;;;9.40;;
72286;SDS011;60221;45.696;16.076;2024-03-23T05:16:39;25.20;;;11.30;;
72286;SDS011;60221;45.696;16.076;2024-03-23T05:19:05;26.00;;;11.60;;
72286;SDS011;60221;45.696;16.076;2024-03-23T05:21:31;27.00;;;12.00;;
72286;SDS011;60221;45.696;16.076;2024-03-23T05:23:57;22.50;;;10.60;;
72286;SDS011;60221;45.696;16.076;2024-03-23T05:26:23;26.50;;;11.10;;
72286;SDS011;60221;45.696;16.076;2024-03-23T05:28:49;25.00;;;11.60;;
72286;SDS011;60221;45.696;16.076;2024-03-23T05:31:25;23.50;;;11.90;;
72286;SDS011;60221;45.696;16.076;2024-03-23T05:33:51;19.90;;;10.80;;
72286;SDS011;60221;45.696;16.076;2024-03-23T05:36:17;21.80;;;11.30;;
72286;SDS011;60221;45.696;16.076;2024-03-23T05:38:43;22.40;;;11.20;;
72286;SDS011;60221;45.696;16.076;2024-03-23T05:41:09;24.10;;;11.30;;
72286;SDS011;60221;45.696;16.076;2024-03-23T05:43:36;23.10;;;10.70;;
72286;SDS011;60221;45.696;16.076;2024-03-23T05:46:01;20.00;;;10.70;;
72286;SDS011;60221;45.696;16.076;2024-03-23T05:48:28;21.90;;;10.40;;
72286;SDS011;60221;45.696;16.076;2024-03-23T05:50:55;21.70;;;11.60;;
72286;SDS011;60221;45.696;16.076;2024-03-23T05:53:21;23.10;;;10.60;;
72286;SDS011;60221;45.696;16.076;2024-03-23T05:55:48;23.30;;;12.00;;
72286;SDS011;60221;45.696;16.076;2024-03-23T05:58:17;22.30;;;12.30;;
72286;SDS011;60221;45.696;16.076;2024-03-23T06:00:43;22.90;;;12.10;;
72286;SDS011;60221;45.696;16.076;2024-03-23T06:03:09;24.70;;;13.10;;
72286;SDS011;60221;45.696;16.076;2024-03-23T06:05:36;24.50;;;12.10;;
72286;SDS011;60221;45.696;16.076;2024-03-23T06:08:02;22.70;;;11.70;;
72286;SDS011;60221;45.696;16.076;2024-03-23T06:10:28;22.20;;;12.30;;
72286;SDS011;60221;45.696;16.076;2024-03-23T06:12:54;21.70;;;11.80;;
72286;SDS011;60221;45.696;16.076;2024-03-23T06:15:21;26.90;;;13.20;;
72286;SDS011;60221;45.696;16.076;2024-03-23T06:17:48;21.80;;;11.80;;
72286;SDS011;60221;45.696;16.076;2024-03-23T06:20:14;25.30;;;12.70;;
72286;SDS011;60221;45.696;16.076;2024-03-23T06:22:40;20.90;;;11.90;;
72286;SDS011;60221;45.696;16.076;2024-03-23T06:25:06;23.70;;;11.20;;
72286;SDS011;60221;45.696;16.076;2024-03-23T06:27:33;18.90;;;11.30;;
72286;SDS011;60221;45.696;16.076;2024-03-23T06:29:59;19.80;;;10.70;;
72286;SDS011;60221;45.696;16.076;2024-03-23T06:32:25;17.70;;;10.00;;
72286;SDS011;60221;45.696;16.076;2024-03-23T06:34:51;20.80;;;10.40;;
72286;SDS011;60221;45.696;16.076;2024-03-23T06:37:17;21.00;;;10.30;;
72286;SDS011;60221;45.696;16.076;2024-03-23T06:39:45;15.60;;;9.30;;
72286;SDS011;60221;45.696;16.076;2024-03-23T06:42:11;14.60;;;7.80;;
72286;SDS011;60221;45.696;16.076;2024-03-23T06:44:37;12.00;;;7.00;;
72286;SDS011;60221;45.696;16.076;2024-03-23T06:47:03;11.90;;;6.90;;
72286;SDS011;60221;45.696;16.076;2024-03-23T06:49:29;12.80;;;5.80;;
72286;SDS011;60221;45.696;16.076;2024-03-23T06:51:55;11.70;;;5.40;;
72286;SDS011;60221;45.696;16.076;2024-03-23T06:54:21;11.70;;;6.10;;
72286;SDS011;60221;45.696;16.076;2024-03-23T06:56:47;13.30;;;6.30;;
72286;SDS011;60221;45.696;16.076;2024-03-23T06:59:13;11.30;;;5.50;;
72286;SDS011;60221;45.696;16.076;2024-03-23T07:01:39;11.40;;;6.10;;
72286;SDS011;60221;45.696;16.076;2024-03-23T07:04:05;13.30;;;6.80;;
72286;SDS011;60221;45.696;16.076;2024-03-23T07:06:31;13.30;;;6.40;;
72286;SDS011;60221;45.696;16.076;2024-03-23T07:08:57;11.60;;;6.50;;
72286;SDS011;60221;45.696;16.076;2024-03-23T07:11:23;19.80;;;10.90;;
72286;SDS011;60221;45.696;16.076;2024-03-23T07:13:49;66.40;;;39.50;;
72286;SDS011;60221;45.696;16.076;2024-03-23T07:16:16;31.40;;;21.70;;
72286;SDS011;60221;45.696;16.076;2024-03-23T07:18:42;20.30;;;14.10;;
72286;SDS011;60221;45.696;16.076;2024-03-23T07:21:09;33.00;;;28.20;;
72286;SDS011;60221;45.696;16.076;2024-03-23T07:23:35;33.30;;;29.30;;
72286;SDS011;60221;45.696;16.076;2024-03-23T07:26:01;21.70;;;17.00;;
72286;SDS011;60221;45.696;16.076;2024-03-23T07:28:28;14.90;;;9.20;;
72286;SDS011;60221;45.696;16.076;2024-03-23T07:31:07;13.00;;;7.00;;
72286;SDS011;60221;45.696;16.076;2024-03-23T07:33:37;6.50;;;3.40;;
72286;SDS011;60221;45.696;16.076;2024-03-23T07:36:04;8.20;;;4.00;;
72286;SDS011;60221;45.696;16.076;2024-03-23T07:38:30;7.10;;;3.40;;
72286;SDS011;60221;45.696;16.076;2024-03-23T07:41:12;6.30;;;1.80;;
72286;SDS011;60221;45.696;16.076;2024-03-23T07:43:40;5.00;;;1.60;;
72286;SDS011;60221;45.696;16.076;2024-03-23T07:46:06;3.90;;;1.60;;
72286;SDS011;60221;45.696;16.076;2024-03-23T07:48:32;5.10;;;2.50;;
72286;SDS011;60221;45.696;16.076;2024-03-23T07:51:05;7.30;;;1.60;;
72286;SDS011;60221;45.696;16.076;2024-03-23T07:53:31;4.20;;;1.50;;
72286;SDS011;60221;45.696;16.076;2024-03-23T07:55:58;4.00;;;1.30;;
72286;SDS011;60221;45.696;16.076;2024-03-23T07:58:25;3.40;;;1.50;;
72286;SDS011;60221;45.696;16.076;2024-03-23T08:00:54;3.40;;;1.00;;
72286;SDS011;60221;45.696;16.076;2024-03-23T08:03:20;3.80;;;1.20;;
72286;SDS011;60221;45.696;16.076;2024-03-23T08:05:46;4.80;;;0.70;;
72286;SDS011;60221;45.696;16.076;2024-03-23T08:08:13;4.20;;;0.90;;
72286;SDS011;60221;45.696;16.076;2024-03-23T08:10:48;4.20;;;1.10;;
72286;SDS011;60221;45.696;16.076;2024-03-23T08:13:15;2.80;;;0.70;;
72286;SDS011;60221;45.696;16.076;2024-03-23T08:15:41;3.10;;;0.70;;
72286;SDS011;60221;45.696;16.076;2024-03-23T08:18:07;3.70;;;0.70;;
72286;SDS011;60221;45.696;16.076;2024-03-23T08:20:33;3.40;;;0.80;;
72286;SDS011;60221;45.696;16.076;2024-03-23T08:22:59;2.90;;;0.70;;
72286;SDS011;60221;45.696;16.076;2024-03-23T08:25:25;3.30;;;0.70;;
72286;SDS011;60221;45.696;16.076;2024-03-23T08:27:51;4.30;;;0.90;;
72286;SDS011;60221;45.696;16.076;2024-03-23T08:30:17;3.40;;;0.90;;
72286;SDS011;60221;45.696;16.076;2024-03-23T08:32:42;3.50;;;0.80;;
72286;SDS011;60221;45.696;16.076;2024-03-23T08:35:08;3.30;;;0.90;;
72286;SDS011;60221;45.696;16.076;2024-03-23T08:37:35;3.10;;;1.00;;
72286;SDS011;60221;45.696;16.076;2024-03-23T08:40:01;2.80;;;0.80;;
72286;SDS011;60221;45.696;16.076;2024-03-23T08:42:27;5.70;;;0.90;;
72286;SDS011;60221;45.696;16.076;2024-03-23T08:44:53;3.40;;;0.70;;
72286;SDS011;60221;45.696;16.076;2024-03-23T08:47:19;2.80;;;0.80;;
72286;SDS011;60221;45.696;16.076;2024-03-23T08:49:45;2.60;;;0.80;;
72286;SDS011;60221;45.696;16.076;2024-03-23T08:52:11;4.90;;;1.10;;
72286;SDS011;60221;45.696;16.076;2024-03-23T08:54:37;3.40;;;0.90;;
72286;SDS011;60221;45.696;16.076;2024-03-23T08:57:03;2.90;;;0.60;;
72286;SDS011;60221;45.696;16.076;2024-03-23T08:59:29;2.60;;;0.70;;
72286;SDS011;60221;45.696;16.076;2024-03-23T09:01:55;3.50;;;0.80;;
72286;SDS011;60221;45.696;16.076;2024-03-23T09:04:21;3.20;;;0.60;;
72286;SDS011;60221;45.696;16.076;2024-03-23T09:06:47;2.90;;;0.70;;
72286;SDS011;60221;45.696;16.076;2024-03-23T09:09:14;4.00;;;0.70;;
72286;SDS011;60221;45.696;16.076;2024-03-23T09:11:40;2.50;;;0.70;;
72286;SDS011;60221;45.696;16.076;2024-03-23T09:14:06;3.00;;;0.80;;
72286;SDS011;60221;45.696;16.076;2024-03-23T09:16:31;2.70;;;0.60;;
72286;SDS011;60221;45.696;16.076;2024-03-23T09:18:57;3.00;;;0.90;;
72286;SDS011;60221;45.696;16.076;2024-03-23T09:21:23;4.00;;;1.20;;
72286;SDS011;60221;45.696;16.076;2024-03-23T09:23:49;4.10;;;0.80;;
72286;SDS011;60221;45.696;16.076;2024-03-23T09:26:15;3.70;;;0.90;;
72286;SDS011;60221;45.696;16.076;2024-03-23T09:28:41;3.70;;;1.00;;
72286;SDS011;60221;45.696;16.076;2024-03-23T09:31:08;3.20;;;1.20;;
72286;SDS011;60221;45.696;16.076;2024-03-23T09:33:34;3.10;;;0.90;;
72286;SDS011;60221;45.696;16.076;2024-03-23T09:36:04;3.00;;;0.80;;
72286;SDS011;60221;45.696;16.076;2024-03-23T09:38:30;4.00;;;0.90;;
72286;SDS011;60221;45.696;16.076;2024-03-23T09:40:57;4.30;;;1.00;;
72286;SDS011;60221;45.696;16.076;2024-03-23T09:43:23;3.90;;;0.80;;
72286;SDS011;60221;45.696;16.076;2024-03-23T09:45:49;4.70;;;0.80;;
72286;SDS011;60221;45.696;16.076;2024-03-23T09:48:15;3.10;;;1.00;;
72286;SDS011;60221;45.696;16.076;2024-03-23T09:50:42;3.40;;;1.10;;
72286;SDS011;60221;45.696;16.076;2024-03-23T09:53:09;2.80;;;0.90;;
72286;SDS011;60221;45.696;16.076;2024-03-23T09:55:37;3.30;;;1.00;;
72286;SDS011;60221;45.696;16.076;2024-03-23T09:58:04;4.20;;;1.00;;
72286;SDS011;60221;45.696;16.076;2024-03-23T10:00:37;3.10;;;1.10;;
72286;SDS011;60221;45.696;16.076;2024-03-23T10:03:03;4.30;;;1.00;;
72286;SDS011;60221;45.696;16.076;2024-03-23T10:05:30;3.60;;;1.20;;
72286;SDS011;60221;45.696;16.076;2024-03-23T10:10:39;5.30;;;1.20;;
72286;SDS011;60221;45.696;16.076;2024-03-23T10:13:05;6.10;;;1.20;;
72286;SDS011;60221;45.696;16.076;2024-03-23T10:15:33;3.40;;;0.90;;
72286;SDS011;60221;45.696;16.076;2024-03-23T10:18:02;3.80;;;1.10;;
72286;SDS011;60221;45.696;16.076;2024-03-23T10:20:43;3.30;;;1.10;;
72286;SDS011;60221;45.696;16.076;2024-03-23T10:23:16;3.90;;;1.00;;
72286;SDS011;60221;45.696;16.076;2024-03-23T10:25:43;3.30;;;1.20;;
72286;SDS011;60221;45.696;16.076;2024-03-23T10:28:08;3.20;;;1.30;;
72286;SDS011;60221;45.696;16.076;2024-03-23T10:30:37;3.50;;;1.40;;
72286;SDS011;60221;45.696;16.076;2024-03-23T10:33:10;4.70;;;1.40;;
72286;SDS011;60221;45.696;16.076;2024-03-23T10:35:36;3.80;;;1.20;;
72286;SDS011;60221;45.696;16.076;2024-03-23T10:38:06;4.60;;;1.50;;
72286;SDS011;60221;45.696;16.076;2024-03-23T10:40:36;4.50;;;1.50;;
72286;SDS011;60221;45.696;16.076;2024-03-23T10:43:05;3.00;;;1.10;;
72286;SDS011;60221;45.696;16.076;2024-03-23T10:45:32;3.10;;;1.10;;
72286;SDS011;60221;45.696;16.076;2024-03-23T10:47:58;3.50;;;1.20;;
72286;SDS011;60221;45.696;16.076;2024-03-23T10:50:24;3.00;;;1.00;;
72286;SDS011;60221;45.696;16.076;2024-03-23T10:52:50;3.90;;;1.20;;
72286;SDS011;60221;45.696;16.076;2024-03-23T10:55:19;3.30;;;1.10;;
72286;SDS011;60221;45.696;16.076;2024-03-23T10:57:48;3.20;;;1.10;;
72286;SDS011;60221;45.696;16.076;2024-03-23T11:00:15;3.70;;;1.60;;
72286;SDS011;60221;45.696;16.076;2024-03-23T11:02:42;3.10;;;1.20;;
72286;SDS011;60221;45.696;16.076;2024-03-23T11:07:52;3.50;;;1.20;;
72286;SDS011;60221;45.696;16.076;2024-03-23T11:12:51;3.40;;;0.90;;
72286;SDS011;60221;45.696;16.076;2024-03-23T11:15:16;3.90;;;1.10;;
72286;SDS011;60221;45.696;16.076;2024-03-23T11:17:43;3.10;;;1.10;;
72286;SDS011;60221;45.696;16.076;2024-03-23T11:20:31;2.70;;;0.70;;
72286;SDS011;60221;45.696;16.076;2024-03-23T11:22:57;4.20;;;1.40;;
72286;SDS011;60221;45.696;16.076;2024-03-23T11:25:23;3.50;;;1.30;;
72286;SDS011;60221;45.696;16.076;2024-03-23T11:27:50;3.00;;;1.00;;
72286;SDS011;60221;45.696;16.076;2024-03-23T11:30:17;3.70;;;1.00;;
72286;SDS011;60221;45.696;16.076;2024-03-23T11:32:47;4.70;;;1.40;;
72286;SDS011;60221;45.696;16.076;2024-03-23T11:38:04;4.20;;;1.30;;
72286;SDS011;60221;45.696;16.076;2024-03-23T11:40:31;3.90;;;1.30;;
72286;SDS011;60221;45.696;16.076;2024-03-23T11:42:58;4.10;;;1.30;;
72286;SDS011;60221;45.696;16.076;2024-03-23T11:45:24;3.30;;;1.10;;
72286;SDS011;60221;45.696;16.076;2024-03-23T11:48:06;3.10;;;1.00;;
72286;SDS011;60221;45.696;16.076;2024-03-23T11:50:33;3.60;;;1.20;;
72286;SDS011;60221;45.696;16.076;2024-03-23T11:53:07;3.60;;;1.30;;
72286;SDS011;60221;45.696;16.076;2024-03-23T11:55:55;3.60;;;1.30;;
72286;SDS011;60221;45.696;16.076;2024-03-23T11:58:19;3.20;;;1.20;;
72286;SDS011;60221;45.696;16.076;2024-03-23T12:03:23;3.40;;;1.10;;
72286;SDS011;60221;45.696;16.076;2024-03-23T12:05:55;4.20;;;1.20;;
72286;SDS011;60221;45.696;16.076;2024-03-23T12:08:22;3.40;;;1.10;;
72286;SDS011;60221;45.696;16.076;2024-03-23T12:10:49;3.20;;;1.10;;
72286;SDS011;60221;45.696;16.076;2024-03-23T12:13:16;3.30;;;1.40;;
72286;SDS011;60221;45.696;16.076;2024-03-23T12:15:43;4.40;;;1.40;;
72286;SDS011;60221;45.696;16.076;2024-03-23T12:18:09;3.80;;;1.20;;
72286;SDS011;60221;45.696;16.076;2024-03-23T12:20:36;4.10;;;1.40;;
72286;SDS011;60221;45.696;16.076;2024-03-23T12:23:07;6.00;;;1.40;;
72286;SDS011;60221;45.696;16.076;2024-03-23T12:25:34;3.70;;;1.20;;
72286;SDS011;60221;45.696;16.076;2024-03-23T12:28:00;3.60;;;1.10;;
72286;SDS011;60221;45.696;16.076;2024-03-23T12:30:26;3.70;;;1.30;;
72286;SDS011;60221;45.696;16.076;2024-03-23T12:32:52;3.20;;;1.10;;
72286;SDS011;60221;45.696;16.076;2024-03-23T12:35:18;4.60;;;1.10;;
72286;SDS011;60221;45.696;16.076;2024-03-23T12:37:44;3.10;;;0.90;;
72286;SDS011;60221;45.696;16.076;2024-03-23T12:40:10;3.20;;;1.10;;
72286;SDS011;60221;45.696;16.076;2024-03-23T12:42:36;4.20;;;1.50;;
72286;SDS011;60221;45.696;16.076;2024-03-23T12:45:02;4.40;;;1.40;;
72286;SDS011;60221;45.696;16.076;2024-03-23T12:47:32;5.10;;;1.10;;
72286;SDS011;60221;45.696;16.076;2024-03-23T12:49:58;3.60;;;1.00;;
72286;SDS011;60221;45.696;16.076;2024-03-23T12:52:24;3.60;;;1.00;;
72286;SDS011;60221;45.696;16.076;2024-03-23T12:54:54;3.20;;;1.00;;
72286;SDS011;60221;45.696;16.076;2024-03-23T12:57:24;3.00;;;1.00;;
72286;SDS011;60221;45.696;16.076;2024-03-23T12:59:53;3.70;;;1.30;;
72286;SDS011;60221;45.696;16.076;2024-03-23T13:02:19;4.70;;;1.50;;
72286;SDS011;60221;45.696;16.076;2024-03-23T13:04:55;5.50;;;1.60;;
72286;SDS011;60221;45.696;16.076;2024-03-23T13:07:21;8.30;;;1.60;;
72286;SDS011;60221;45.696;16.076;2024-03-23T13:09:50;3.40;;;1.20;;
72286;SDS011;60221;45.696;16.076;2024-03-23T13:12:18;4.70;;;1.60;;
72286;SDS011;60221;45.696;16.076;2024-03-23T13:14:45;3.60;;;1.40;;
72286;SDS011;60221;45.696;16.076;2024-03-23T13:17:11;4.70;;;1.50;;
72286;SDS011;60221;45.696;16.076;2024-03-23T13:19:37;3.80;;;1.10;;
72286;SDS011;60221;45.696;16.076;2024-03-23T13:22:06;10.30;;;1.80;;
72286;SDS011;60221;45.696;16.076;2024-03-23T13:24:32;3.80;;;1.60;;
72286;SDS011;60221;45.696;16.076;2024-03-23T13:26:58;4.20;;;1.60;;
72286;SDS011;60221;45.696;16.076;2024-03-23T13:29:24;4.00;;;1.60;;
72286;SDS011;60221;45.696;16.076;2024-03-23T13:31:51;5.10;;;1.70;;
72286;SDS011;60221;45.696;16.076;2024-03-23T13:34:17;5.10;;;1.90;;
72286;SDS011;60221;45.696;16.076;2024-03-23T13:36:44;5.60;;;1.80;;
72286;SDS011;60221;45.696;16.076;2024-03-23T13:39:11;5.50;;;2.20;;
72286;SDS011;60221;45.696;16.076;2024-03-23T13:41:40;5.10;;;2.00;;
72286;SDS011;60221;45.696;16.076;2024-03-23T13:44:06;5.40;;;1.90;;
72286;SDS011;60221;45.696;16.076;2024-03-23T13:46:33;4.20;;;2.00;;
72286;SDS011;60221;45.696;16.076;2024-03-23T13:48:59;4.70;;;1.90;;
72286;SDS011;60221;45.696;16.076;2024-03-23T13:51:26;6.70;;;2.10;;
72286;SDS011;60221;45.696;16.076;2024-03-23T13:53:55;6.10;;;1.60;;
72286;SDS011;60221;45.696;16.076;2024-03-23T13:56:29;5.10;;;2.10;;
72286;SDS011;60221;45.696;16.076;2024-03-23T13:58:55;5.60;;;1.90;;
72286;SDS011;60221;45.696;16.076;2024-03-23T14:01:22;4.90;;;1.70;;
72286;SDS011;60221;45.696;16.076;2024-03-23T14:03:48;4.40;;;1.80;;
72286;SDS011;60221;45.696;16.076;2024-03-23T14:06:15;5.50;;;2.00;;
72286;SDS011;60221;45.696;16.076;2024-03-23T14:08:41;6.40;;;1.80;;
72286;SDS011;60221;45.696;16.076;2024-03-23T14:11:09;4.80;;;1.80;;
72286;SDS011;60221;45.696;16.076;2024-03-23T14:13:35;6.10;;;2.10;;
72286;SDS011;60221;45.696;16.076;2024-03-23T14:16:01;4.30;;;1.90;;
72286;SDS011;60221;45.696;16.076;2024-03-23T14:18:27;4.30;;;1.80;;
72286;SDS011;60221;45.696;16.076;2024-03-23T14:20:57;4.40;;;1.80;;
72286;SDS011;60221;45.696;16.076;2024-03-23T14:23:27;5.30;;;2.00;;
72286;SDS011;60221;45.696;16.076;2024-03-23T14:25:55;3.50;;;1.40;;
72286;SDS011;60221;45.696;16.076;2024-03-23T14:28:22;5.00;;;1.80;;
72286;SDS011;60221;45.696;16.076;2024-03-23T14:30:52;4.20;;;1.50;;
72286;SDS011;60221;45.696;16.076;2024-03-23T14:33:21;6.50;;;1.70;;
72286;SDS011;60221;45.696;16.076;2024-03-23T14:35:56;5.90;;;2.50;;
72286;SDS011;60221;45.696;16.076;2024-03-23T14:38:23;4.00;;;1.30;;
72286;SDS011;60221;45.696;16.076;2024-03-23T14:40:49;4.20;;;1.60;;
72286;SDS011;60221;45.696;16.076;2024-03-23T14:43:17;5.00;;;1.70;;
72286;SDS011;60221;45.696;16.076;2024-03-23T14:48:29;3.80;;;1.40;;
72286;SDS011;60221;45.696;16.076;2024-03-23T14:50:56;5.00;;;1.20;;
72286;SDS011;60221;45.696;16.076;2024-03-23T14:53:22;3.90;;;1.60;;
72286;SDS011;60221;45.696;16.076;2024-03-23T14:55:48;5.20;;;1.40;;
72286;SDS011;60221;45.696;16.076;2024-03-23T14:58:15;4.80;;;1.60;;
72286;SDS011;60221;45.696;16.076;2024-03-23T15:00:41;3.60;;;1.40;;
72286;SDS011;60221;45.696;16.076;2024-03-23T15:03:07;4.00;;;1.10;;
72286;SDS011;60221;45.696;16.076;2024-03-23T15:05:32;4.50;;;1.60;;
72286;SDS011;60221;45.696;16.076;2024-03-23T15:07:58;3.50;;;1.30;;
72286;SDS011;60221;45.696;16.076;2024-03-23T15:10:24;4.40;;;1.20;;
72286;SDS011;60221;45.696;16.076;2024-03-23T15:12:50;5.50;;;1.70;;
72286;SDS011;60221;45.696;16.076;2024-03-23T15:15:16;4.30;;;1.40;;
72286;SDS011;60221;45.696;16.076;2024-03-23T15:17:42;7.00;;;1.70;;
72286;SDS011;60221;45.696;16.076;2024-03-23T15:20:10;4.60;;;1.30;;
72286;SDS011;60221;45.696;16.076;2024-03-23T15:22:37;4.80;;;1.50;;
72286;SDS011;60221;45.696;16.076;2024-03-23T15:25:03;4.30;;;1.90;;
72286;SDS011;60221;45.696;16.076;2024-03-23T15:27:29;4.00;;;1.00;;
72286;SDS011;60221;45.696;16.076;2024-03-23T15:29:58;4.40;;;1.50;;
72286;SDS011;60221;45.696;16.076;2024-03-23T15:32:24;4.90;;;1.50;;
72286;SDS011;60221;45.696;16.076;2024-03-23T15:34:50;3.70;;;1.40;;
72286;SDS011;60221;45.696;16.076;2024-03-23T15:37:16;5.00;;;1.70;;